Weather at Becks Grove Airport

Public forecast

Using degrees Fahrenheit for public forecast. Weather courtesy of forecast.io.

Closest aviation weather report (METAR) to Becks Grove Airport

Closest report is Griffiss International Airport, 8.7 nm (16.2 km) E. Retrieved 2020/12/02 17:03 UTC (9 minutes ago):

KRME 021703Z 25014G17KT 1 3/4SM -SN BR OVC013 00/M02 A2982 RMK AO2 P0000 T00001022

Closest aviation forecast (TAF) to Becks Grove Airport

Closest forecast is Griffiss International Airport, 8.7 nm (16.2 km) E. Retrieved 2020/12/02 12:30 UTC (5 hours ago):

TAF KRME 021129Z 0212/0312 25009KT P6SM -SHSN OVC025 FM021400 23007KT 1SM -SHSN BR BKN009 FM021900 25010G20KT 3SM -SHSN BR OVC013 FM022300 28010G18KT P6SM OVC025 FM030300 26009KT P6SM BKN040